x

9449880 - Friday Harbor, Wa (frdw1) Weather Station

5:36 - Wed 1st Apr 2015 All times are PDT. -7 hours from GMT.

  • Wind
    3mph, 8mph gusts
  • Sea Temp 49°f
  • Air Temp 50°f
  • Sea Pressure 1024.9mb
  • 9449880 - Friday Harbor, Wa
  • 9449880 - Friday Harbor, Wa

More Historic Weather Station data

Upgrade to MSW Pro to gain access to the past 30 days of data for over 8000 Wavebouys and Weather Stations around the globe.

Join Pro

Comparision Forecast

View Surf forecast
   
mer. 04/01 5:36 3 8 mph 1024.9mb 49f 50f
5:30 2 6 mph 1024.9mb 49f 50f
5:24 2 9 mph 1024.8mb 49f 50f
5:18 6 10 mph 1024.8mb 49f 50f
5:12 7 11 mph 1024.8mb 49f 50f
5:06 3 7 mph 1024.8mb 49f 51f
5:00 3 7 mph 1024.8mb 49f 51f
4:36 8 11 mph 1024.7mb 49f 51f
4:30 9 13 mph 1024.7mb 49f 51f
4:24 8 13 mph 1024.7mb 49f 50f
4:18 5 10 mph 1024.7mb 49f 51f
4:12 8 9 mph 1024.7mb 49f 50f
4:06 7 9 mph 1024.7mb 49f 50f
4:00 6 7 mph 1024.7mb 49f 49f
3:36 8 11 mph 1024.8mb 49f 49f
3:30 7 10 mph 1024.8mb 49f 49f
3:24 9 14 mph 1024.8mb 49f 48f
3:18 13 15 mph 1024.9mb 49f 48f
3:12 11 16 mph 1024.9mb 49f 48f
3:06 15 17 mph 1024.9mb 49f 48f
3:00 13 16 mph 1024.9mb 49f 48f
2:36 7 13 mph 1024.8mb 49f 48f
2:30 10 14 mph 1024.8mb 49f 48f
2:24 11 14 mph 1024.9mb 49f 48f
2:18 10 14 mph 1025mb 49f 48f
2:12 13 16 mph 1024.9mb 49f 47f
2:06 14 20 mph 1024.9mb 49f 48f
2:00 15 20 mph 1025mb 49f 48f
1:36 15 17 mph 1025mb 49f 49f
1:30 11 14 mph 1025mb 49f 49f
1:24 11 14 mph 1025.1mb 49f 49f
1:18 13 15 mph 1025.1mb 49f 48f
1:12 13 14 mph 1025.2mb 49f 48f
1:06 13 15 mph 1025.2mb 49f 48f
1:00 13 16 mph 1025.2mb 49f 48f
12:36 13 17 mph 1025.3mb 49f 48f
12:30 10 14 mph 1025.3mb 49f 48f
12:24 14 17 mph 1025.3mb 49f 48f
12:18 11 17 mph 1025.4mb 49f 48f
12:12 13 17 mph 1025.4mb 49f 47f
12:06 14 18 mph 1025.4mb 49f 48f
12:00 11 18 mph 1025.4mb 49f 47f
11:36 14 17 mph 1025.5mb 49f 47f
11:30 14 16 mph 1025.4mb 49f 47f
11:24 14 16 mph 1025.4mb 49f 47f
11:18 14 21 mph 1025.4mb 49f 47f
11:12 11 20 mph 1025.4mb 49f 48f
11:06 15 18 mph 1025.4mb 49f 47f
11:00 14 18 mph 1025.4mb 49f 47f
10:36 14 18 mph 1025.4mb 49f 47f
10:30 13 18 mph 1025.4mb 49f 47f
10:24 13 20 mph 1025.4mb 49f 47f
10:18 14 18 mph 1025.3mb 49f 47f
10:12 15 21 mph 1025.3mb 49f 47f
10:06 17 21 mph 1025.3mb 49f 47f
10:00 14 18 mph 1025.2mb 49f 47f
9:36 10 13 mph 1025.1mb 49f 46f
9:30 9 11 mph 1025mb 49f 46f
9:24 7 13 mph 1025mb 49f 46f
9:18 13 16 mph 1025mb 49f 46f
9:12 13 15 mph 1024.9mb 49f 46f
9:06 11 14 mph 1024.8mb 49f 47f
9:00 11 14 mph 1024.8mb 49f 47f
8:36 6 7 mph 1024.7mb 49f 47f
8:30 5 6 mph 1024.6mb 49f 46f
8:24 3 5 mph 1024.6mb 49f 46f
8:18 2 6 mph 1024.6mb 49f 45f
8:12 5 8 mph 1024.5mb 49f 44f
8:06 7 8 mph 1024.5mb 49f 44f
8:00 7 8 mph 1024.5mb 49f 44f
7:36 1 2 mph 1024.4mb 49f 44f
7:30 1 2 mph 1024.3mb 49f 44f
7:24  -  1 mph 1024.3mb 49f 44f
7:18 2
mph
1024.3mb 49f 43f
7:12 2 3 mph 1024.3mb 49f 42f
7:06 2 3 mph 1024.2mb 49f 42f
7:00  -  1 mph 1024.2mb 49f 42f
6:36  -  1 mph 1024mb 49f 42f
6:30 1 5 mph 1023.9mb 49f 42f
6:24 5 6 mph 1023.9mb 49f 42f
6:18 6 7 mph 1023.9mb 49f 42f
6:12 3 5 mph 1023.9mb 49f 42f
6:06  -  2 mph 1023.8mb 49f 42f
6:00  -  2 mph 1023.8mb 49f 42f
5:36 2 5 mph 1023.8mb 49f 41f
5:30 2
mph
1023.8mb 49f 42f
5:24  -  3 mph 1023.8mb 49f 42f
5:18 2 3 mph 1023.7mb 49f 42f
5:12 2 6 mph 1023.7mb 49f 42f
5:06 2 3 mph 1023.7mb 49f 42f
5:00 1 3 mph 1023.7mb 49f 42f
4:36 2 3 mph 1023.5mb 49f 42f
4:30 1 5 mph 1023.5mb 49f 42f
4:24 2 5 mph 1023.5mb 49f 42f
4:18 2 5 mph 1023.5mb 49f 42f
4:12 2 5 mph 1023.5mb 49f 42f
4:06 1 2 mph 1023.4mb 49f 42f
4:00  -  3 mph 1023.4mb 49f 42f
3:36 3 7 mph 1023.2mb 49f 43f
3:30 6 7 mph 1023.2mb 49f 43f
3:24 5 7 mph 1023.2mb 49f 43f
3:18 5 6 mph 1023.2mb 49f 43f
3:12 5 6 mph 1023.1mb 49f 43f
3:06 5 6 mph 1023.1mb 49f 43f
3:00 3 7 mph 1023mb 49f 43f
2:36 10 14 mph 1023mb 49f 44f
2:30 8 11 mph 1023mb 49f 44f
2:24 7 10 mph 1023mb 49f 44f
2:18 7 10 mph 1023mb 49f 44f
2:12 9 11 mph 1022.9mb 49f 44f
2:06 8 13 mph 1022.9mb 49f 44f
2:00 11 15 mph 1022.9mb 49f 44f
1:36 7 11 mph 1022.8mb 49f 44f
1:30 5 11 mph 1022.7mb 49f 44f
1:24 9 14 mph 1022.6mb 49f 44f
1:18 11 14 mph 1022.5mb 49f 44f
1:12 7 10 mph 1022.5mb 49f 44f
1:06 3 7 mph 1022.5mb 49f 44f
1:00 3 7 mph 1022.4mb 49f 44f
12:36 3 7 mph 1022.3mb 49f 44f
12:30 2 6 mph 1022.2mb 49f 44f
12:24 5 11 mph 1022.2mb 49f 45f
12:18 8 13 mph 1022.1mb 49f 45f
12:12 8 10 mph 1022mb 49f 45f
12:06 9 10 mph 1022mb 49f 45f
12:00 8 13 mph 1022mb 49f 45f
mar. 03/31 11:36 8 15 mph 1021.6mb 49f 45f
11:30 9 14 mph 1021.6mb 49f 45f
11:24 10 11 mph 1021.6mb 49f 45f
11:18 8 10 mph 1021.6mb 49f 45f
11:12 6 13 mph 1021.6mb 49f 45f
11:06 7 9 mph 1021.5mb 49f 45f
11:00 6 9 mph 1021.4mb 49f 45f
10:36 7 10 mph 1021.2mb 49f 46f
10:30 2 6 mph 1021.3mb 49f 45f
10:24 1 6 mph 1021.2mb 49f 45f
10:18 2 6 mph 1021.2mb 49f 45f
10:12 3 10 mph 1021.1mb 49f 46f
10:06 9 13 mph 1021mb 49f 46f
10:00 6 11 mph 1021mb 49f 46f
9:36 10 13 mph 1020.9mb 49f 46f
9:30 9 11 mph 1020.9mb 49f 46f
9:24 9 11 mph 1020.9mb 49f 46f
9:18 7 11 mph 1020.8mb 49f 46f
9:12 10 13 mph 1020.7mb 49f 47f
9:06 6 9 mph 1020.7mb 49f 46f
9:00 8 11 mph 1020.7mb 49f 46f
8:36 2 5 mph 1020.4mb 49f 46f
8:30 2 6 mph 1020.3mb 49f 46f
8:24 5 7 mph 1020.3mb 49f 46f
8:18 3 6 mph 1020.2mb 49f 46f
8:12 3 6 mph 1020.2mb 49f 46f
8:06 1 5 mph 1020mb 49f 47f
8:00 3 7 mph 1020mb 49f 47f
7:36 6 9 mph 1019.9mb 49f 48f
7:30 3 5 mph 1019.9mb 49f 48f
7:24 3 5 mph 1019.9mb 49f 48f
7:18 2 7 mph 1019.9mb 49f 48f
7:12 3 7 mph 1020mb 49f 48f
7:06 5 7 mph 1020mb 49f 48f
7:00 2 5 mph 1020mb 49f 48f
6:54 2 10 mph 1020mb 49f 48f
6:48 6 13 mph 1020mb 49f 48f
6:36 3 11 mph 1020.1mb 49f 48f
6:30 7 10 mph 1020.1mb 49f 48f
6:24 7 11 mph 1020mb 49f 48f
6:18 9 16 mph 1019.9mb 49f 49f
6:12 8 17 mph 1019.9mb 49f 49f
6:06 10 16 mph 1019.8mb 49f 49f
6:00 3 10 mph 1019.8mb 49f 49f
5:54 9 15 mph 1019.7mb 49f 49f
5:48 5 10 mph 1019.7mb 49f 50f
5:36 9 14 mph 1019.6mb 49f 50f
5:30 6 14 mph 1019.6mb 49f 50f
5:24 10 18 mph 1019.5mb 49f 50f
5:18 13 23 mph 1019.5mb 49f 49f
5:12 5 10 mph 1019.5mb 49f 49f
5:06 6 9 mph 1019.5mb 49f 49f
5:00 6 11 mph 1019.5mb 49f 49f
4:54 8 13 mph 1019.5mb 49f 49f
4:48 5 9 mph 1019.7mb 49f 49f
4:36 7 13 mph 1019.6mb 49f 47f
3:36 22 28 mph 1019mb 49f 51f
3:30 21 28 mph 1019mb 49f 51f
3:24 23 28 mph 1018.9mb 49f 51f
3:18 24 28 mph 1018.9mb 49f 51f
3:12 15 22 mph 1018.8mb 49f 52f
3:06 16 21 mph 1018.7mb 49f 52f
3:00 17 22 mph 1018.7mb 49f 51f
2:54 17 23 mph 1018.7mb 49f 52f
2:48 16 23 mph 1018.8mb 49f 51f
2:36 23 28 mph 1018.6mb 49f 51f
2:30 18 26 mph 1018.6mb 49f 52f
2:24 17 26 mph 1018.6mb 49f 52f
2:18 20 25 mph 1018.6mb 49f 52f
2:12 21 28 mph 1018.5mb 49f 52f
2:06 15 22 mph 1018.5mb 49f 53f
2:00 11 21 mph 1018.5mb 49f 53f
1:54 15 18 mph 1018.5mb 49f 52f
1:48 13 22 mph 1018.5mb 49f 52f
1:36 22 26 mph 1018.4mb 49f 51f
1:30 14 22 mph 1018.4mb 49f 52f
1:24 20 24 mph 1018.4mb 49f 51f
1:18 20 25 mph 1018.3mb 49f 50f
1:12 23 30 mph 1018.3mb 49f 51f
1:06 22 28 mph 1018.2mb 49f 50f
1:00 21 24 mph 1018.3mb 49f 50f
12:54 17 22 mph 1018.2mb 49f 50f
12:48 21 25 mph 1018.3mb 49f 50f
12:36 13 22 mph 1018.2mb 49f 50f
12:30 17 22 mph 1018.2mb 49f 49f
12:24 16 23 mph 1018.2mb 49f 49f
12:18 15 20 mph 1018.2mb 49f 49f
12:12 17 22 mph 1018.1mb 49f 49f
12:06 16 22 mph 1018mb 49f 49f
12:00 13 24 mph 1017.9mb 49f 50f
11:54 16 23 mph 1017.9mb 49f 50f
11:48 20 28 mph 1017.8mb 49f 49f
11:36 16 24 mph 1017.7mb 49f 50f
11:30 14 22 mph 1017.7mb 49f 50f
11:24 13 22 mph 1017.5mb 49f 49f
11:18 20 26 mph 1017.5mb 49f 49f
11:12 20 26 mph 1017.6mb 49f 49f
11:06 22 29 mph 1017.6mb 49f 48f
11:00 22 24 mph 1017.5mb 49f 48f
10:54 16 24 mph 1017.5mb 49f 49f
10:48 21 29 mph 1017.4mb 49f 49f
10:36 17 24 mph 1017.3mb 49f 49f
10:30 15 25 mph 1017.3mb 49f 48f
10:24 18 28 mph 1017.2mb 49f 48f
10:18 15 21 mph 1017.2mb 49f 48f
10:12 17 25 mph 1017.2mb 49f 48f
10:06 15 23 mph 1017.1mb 49f 47f
10:00 13 21 mph 1017mb 49f 47f
9:54 13 21 mph 1016.9mb 49f 48f
9:48 16 24 mph 1016.8mb 49f 47f
9:36 17 22 mph 1016.6mb 49f 46f
9:30 16 18 mph 1016.6mb 49f 46f
9:24 15 20 mph 1016.5mb 49f 46f
9:18 17 22 mph 1016.4mb 49f 46f
9:12 18 22 mph 1016.4mb 49f 46f
9:06 16 20 mph 1016.3mb 49f 47f
9:00 14 18 mph 1016.2mb 49f 47f
8:54 16 22 mph 1016.1mb 49f 47f
8:48 17 23 mph 1016mb 49f 48f
8:36 13 16 mph 1015.8mb 49f 48f
8:30 8 11 mph 1015.8mb 49f 47f
8:24 9 15 mph 1015.8mb 49f 47f
8:18 14 17 mph 1015.6mb 49f 47f
8:12 13 16 mph 1015.5mb 49f 47f
8:06 15 18 mph 1015.5mb 49f 46f
8:00 14 17 mph 1015.6mb 49f 46f
7:54 11 14 mph 1015.6mb 49f 46f
7:48 10 14 mph 1015.4mb 49f 46f
7:36 15 17 mph 1015.3mb 49f 46f
7:30 14 17 mph 1015.3mb 49f 46f
7:24 11 14 mph 1015.3mb 49f 46f
7:18 13 14 mph 1015.3mb 49f 46f
7:12 10 13 mph 1015.2mb 49f 45f
7:06 9 11 mph 1015.1mb 49f 45f
7:00 7 8 mph 1015.1mb 49f 45f
6:54 6 8 mph 1015mb 49f 45f
6:48 6 7 mph 1015.1mb 49f 45f
6:36 3 8 mph 1014.9mb 49f 44f
6:30 5 7 mph 1014.8mb 49f 44f
6:24 2 5 mph 1014.7mb 49f 44f
6:18 1 2 mph 1014.6mb 49f 44f
6:12 2 3 mph 1014.5mb 49f 44f
6:06 2 3 mph 1014.4mb 49f 45f
6:00  -  3 mph 1014.3mb 49f 45f
5:54 3 6 mph 1014.2mb 49f 45f
5:48 6 8 mph 1014.1mb 49f 45f
5:36 8 9 mph 1014mb 49f 46f
5:30 8 10 mph 1013.9mb 49f 46f
5:24 8 10 mph 1013.8mb 49f 46f
5:18 8 10 mph 1013.7mb 49f 46f
5:12 6 9 mph 1013.6mb 49f 46f
5:06 7 9 mph 1013.5mb 49f 46f
5:00 7 9 mph 1013.5mb 49f 46f
4:54 7 9 mph 1013.4mb 49f 46f
4:48 7 11 mph 1013.2mb 49f 46f
4:36 10 14 mph 1013mb 49f 46f
4:30 8 14 mph 1012.9mb 49f 46f
4:24 11 17 mph 1012.7mb 49f 46f
4:18 11 15 mph 1012.6mb 49f 47f
4:12 11 16 mph 1012.5mb 49f 47f
4:06 13 18 mph 1012.4mb 49f 47f
4:00 13 16 mph 1012.3mb 49f 47f
3:54 10 14 mph 1012.1mb 49f 47f
3:48 9 14 mph 1012.1mb 49f 47f
3:36 2 6 mph 1012mb 49f 46f
3:30  -  2 mph 1011.9mb 49f 46f
3:24  -  2 mph 1011.5mb 49f 46f
3:18 1 2 mph 1011.3mb 49f 46f
3:12  -  2 mph 1011.1mb 49f 46f
3:06 2 14 mph 1011.2mb 49f 47f
3:00 5 20 mph 1011.2mb 49f 47f
2:54 14 23 mph 1011.1mb 49f 47f
2:48 13 16 mph 1011.1mb 49f 47f
2:36 9 18 mph 1010.7mb 49f 46f
2:30 15 28 mph 1010.6mb 49f 46f
2:24 15 26 mph 1010.6mb 49f 46f
2:18 16 21 mph 1010.5mb 49f 46f
2:12 14 18 mph 1010.4mb 49f 46f
2:06 15 25 mph 1010.4mb 49f 46f
2:00 15 25 mph 1010.4mb 49f 46f
1:54 16 24 mph 1010.4mb 49f 46f
1:48 15 20 mph 1010.1mb 49f 47f
1:36 14 20 mph 1009.8mb 49f 47f
1:30 13 16 mph 1009.6mb 49f 48f
1:24 10 15 mph 1009.4mb 49f 49f
1:18 14 18 mph 1009.3mb 49f 50f
1:12 14 18 mph 1009.1mb 49f 51f
1:06 11 16 mph 1009mb 49f 51f
1:00 15 22 mph 1009mb 49f 51f
12:54 16 22 mph 1008.9mb 49f 51f
12:48 14 20 mph 1008.7mb 49f 52f
12:36 14 20 mph 1008.5mb 49f 51f
12:30 8 11 mph 1008.3mb 49f 51f
12:24 10 14 mph 1008.2mb 49f 51f
12:18 11 14 mph 1008.1mb 49f 51f
12:12 13 15 mph 1007.9mb 49f 51f
12:06 10 11 mph 1007.9mb 49f 51f
12:00 6 11 mph 1007.7mb 49f 51f
lun. 03/30 11:54 11 13 mph - - 51f
11:48 9 11 mph 1007.8mb 49f 51f
11:36 6 7 mph - - 51f
11:30 5 6 mph - - 51f
11:24 5 6 mph - - 51f
11:18 5 6 mph 1008mb 49f 51f
11:12 3
mph
- - 51f
11:06  -  1 mph 1008mb 49f 51f
11:00 2 3 mph - - 51f
10:54  -  2 mph - - 51f
10:48 2 5 mph 1008.1mb 49f 51f
10:36 2 3 mph 1008.3mb 49f 51f
10:30 1 3 mph 1008.5mb 49f 51f
10:24  -  2 mph 1008.6mb 49f 50f
10:18 3 5 mph 1008.6mb 49f 50f
10:12 3 7 mph 1008.8mb 49f 50f
10:06 2
mph
1008.8mb 49f 51f
10:00 3
mph
1009mb 49f 51f
9:36 7 11 mph - - 51f
9:30 7 8 mph - - 51f
9:24 3 6 mph 1009.5mb 49f 51f
9:18 2 3 mph 1009.4mb 49f 52f
9:12 1 2 mph 1009.3mb 49f 52f
9:06  -  1 mph - - 51f
9:00  -  1 mph - - 51f
8:54  -  2 mph 1009.7mb 49f 50f
8:48 2
mph
1009.7mb 49f 51f
8:36  -  3 mph 1009.8mb 49f 51f
8:30 1 5 mph 1009.8mb 49f 51f
8:24 1 2 mph 1009.8mb 49f 52f
8:18 1 3 mph 1009.7mb 49f 52f
8:12 2 3 mph 1009.8mb 49f 52f
8:06  -  1 mph 1009.8mb 49f 55f
8:00  -  2 mph 1009.9mb 49f 55f
7:54 1 3 mph 1009.8mb 49f 55f
7:48 5
mph
1009.8mb 49f 56f
7:36 1 3 mph 1010mb 49f 55f
7:30 2
mph
1010mb 49f 55f
7:24  -  2 mph 1010mb 49f 55f
7:18  -  mph 1010mb 49f 56f
7:12  -  2 mph - - 56f
7:06 1 2 mph 1010.3mb 49f 58f
7:00  -  1 mph 1010.3mb 49f 58f
6:54 1 2 mph - - 58f
6:48 2 3 mph - - 58f
6:36 3 5 mph 1010.3mb 49f 58f
6:30 3 5 mph 1010.4mb 49f 58f
6:24 5
mph
1010.5mb 49f 58f
6:18 5 6 mph 1010.6mb 49f 58f
6:12 3 5 mph 1010.7mb 49f 58f
6:06 3 5 mph - - 58f
6:00 2 3 mph - - 58f
5:54 2 5 mph 1010.7mb 49f 58f
5:48 2 3 mph 1010.9mb 49f 58f
5:36 5 6 mph 1011.2mb 49f 58f
5:30 3 6 mph 1011.2mb 49f 58f
5:24 5 7 mph 1011.3mb 49f 58f
5:18 3 7 mph 1011.4mb 49f 58f
5:12 3 6 mph - - 58f
5:06 5 6 mph 1011.6mb 49f 58f
5:00 5 8 mph 1011.8mb 49f 58f
4:54 5 7 mph 1011.8mb 49f 58f
4:48 5 8 mph 1011.9mb 49f 58f
4:36 6 8 mph 1012.1mb 49f 59f
4:30 5 9 mph 1012.3mb 49f 59f
4:24 3 6 mph 1012.4mb 49f 60f
4:18 3 8 mph 1012.5mb 49f 60f
4:12 5 8 mph 1012.6mb 49f 59f
4:06 6 9 mph 1012.8mb 49f 59f
4:00 5 6 mph 1012.9mb 49f 59f
3:54 3 6 mph 1013mb 49f 60f
3:48 3 6 mph 1013.1mb 49f 60f
3:36 6 7 mph 1013.3mb 49f 59f
3:30 3 8 mph 1013.4mb 49f 60f
3:24 5 8 mph 1013.5mb 49f 59f
3:18 6 8 mph 1013.7mb 49f 59f
3:12 7 10 mph 1013.8mb 49f 59f
3:06 6 8 mph 1013.9mb 49f 59f
3:00 6 10 mph 1014mb 49f 59f
2:54 7 13 mph 1014.1mb 49f 59f
2:48 7 10 mph 1014.3mb 49f 59f
2:36 5 8 mph 1014.5mb 49f 58f
2:30 3 7 mph 1014.6mb 49f 58f
2:24 5 6 mph 1014.7mb 49f 58f
2:18 5 8 mph 1014.8mb 49f 58f
2:12 7 11 mph 1015mb 49f 57f
2:06 8 16 mph 1015.1mb 49f 57f
2:00 8 11 mph 1015.2mb 49f 57f
1:54 8 13 mph 1015.4mb 49f 57f
1:48 5 10 mph 1015.4mb 49f 57f
1:36 7 10 mph 1015.6mb 49f 57f
1:30 5 11 mph 1015.8mb 49f 56f
1:24 6 14 mph 1015.8mb 49f 56f
1:18 7 15 mph 1015.9mb 49f 56f
1:12 10 18 mph 1016mb 49f 55f
1:06 6 9 mph 1016.1mb 49f 56f
1:00 8 15 mph 1016.1mb 49f 55f
12:54 7 10 mph 1016.1mb 49f 55f
12:48 7 14 mph 1016.1mb 49f 55f
12:36 7 13 mph 1016.3mb 49f 55f
12:30 8 10 mph 1016.3mb 49f 55f
12:24 7 11 mph 1016.3mb 49f 55f
12:18 6 8 mph 1016.4mb 49f 55f
12:12 8 13 mph 1016.5mb 49f 55f
12:06 7 10 mph 1016.6mb 49f 55f
12:00 6 9 mph 1016.6mb 49f 55f
11:54 7 9 mph 1016.5mb 49f 55f
11:48 7 9 mph 1016.6mb 49f 55f
11:36 6 10 mph 1016.7mb 49f 55f
11:30 6 8 mph 1016.7mb 49f 55f
11:24 5 7 mph 1016.7mb 49f 54f
11:18 5 7 mph 1016.7mb 49f 54f
11:12 5 7 mph - - 54f
11:06 5 8 mph 1016.8mb 49f 54f
11:00 7 8 mph 1016.8mb 49f 54f
10:54 5 7 mph 1016.8mb 49f 53f
10:48 3 7 mph 1016.9mb 49f 54f
10:36 5 6 mph 1017mb 49f 53f
10:30 3 7 mph 1017.1mb 49f 53f
10:24 3 6 mph 1017.1mb 49f 53f
10:18 5 7 mph 1017.1mb 49f 53f
10:12 3 5 mph 1017.1mb 49f 53f
10:06 3 7 mph 1017.2mb 49f 53f
10:00 5 6 mph 1017.2mb 49f 53f
9:54 3 5 mph 1017.3mb 49f 53f
9:48 3 5 mph 1017.2mb 49f 53f
9:36 6 7 mph 1017.3mb 49f 53f
9:30 2 6 mph 1017.3mb 49f 53f
9:24 3 5 mph 1017.2mb 49f 53f
9:18 1 5 mph 1017.2mb 49f 53f
9:12 5 6 mph 1017.2mb 49f 53f
9:06 3 6 mph 1017.3mb 49f 53f
9:00 2 6 mph 1017.3mb 49f 53f
8:54 5 7 mph 1017.3mb 49f 53f
8:48 5 8 mph 1017.3mb 49f 53f
8:36  -  1 mph 1017.2mb 49f 52f
8:30  -  2 mph 1017.3mb 49f 52f
8:24  -  1 mph 1017.2mb 49f 52f
8:18  -  3 mph 1017.3mb 49f 52f
8:12 1 3 mph 1017.3mb 49f 52f
8:06 1 3 mph 1017.3mb 49f 52f
8:00  -  1 mph 1017.3mb 49f 51f
7:54  -  2 mph - - 51f
7:48  -  2 mph 1017.3mb 49f 51f
7:30  -  mph 1017.3mb 49f -
7:18  -  mph 1017.3mb 49f -
6:48  -  mph 1017.5mb 49f -
6:24  -  mph 1017.9mb 49f -
6:18  -  mph 1017.9mb 49f -
6:12  -  mph 1017.9mb 49f -
6:06  -  mph 1018mb 49f -
6:00  -  mph 1018mb 49f -
5:54  -  mph 1017.9mb 49f -
5:48  -  mph 1017.9mb 49f -
5:36  -  1 mph 1018mb 49f 52f
5:30  -  3 mph 1018mb 49f 52f
5:24  -  3 mph 1018mb 49f 51f
5:18  -  6 mph 1018mb 49f 51f
5:12 2 5 mph 1018mb 49f 51f
5:06 1 3 mph 1018.1mb 49f 51f
5:00 2 3 mph 1018.2mb 49f 51f
4:54 2 3 mph 1018.3mb 49f 51f
4:48 2 3 mph 1018.3mb 49f 51f
4:36  -  2 mph 1018.4mb 49f 51f
4:30 1 2 mph 1018.4mb 49f 51f
4:24 1 3 mph 1018.5mb 49f 51f
4:18 1 2 mph 1018.5mb 49f 51f
4:12 1 3 mph 1018.5mb 49f 51f
4:06 1 2 mph 1018.6mb 49f 51f
4:00 1 2 mph 1018.7mb 49f 51f
3:54  -  2 mph 1018.7mb 49f 51f
3:48 2 3 mph 1018.8mb 49f 51f
3:36  -  2 mph 1018.8mb 49f 51f
3:30  -  1 mph 1018.9mb 49f 51f
3:24  -  1 mph 1019mb 49f 52f
3:18  -  1 mph 1019mb 49f 52f
3:12  -  1 mph 1019mb 49f 52f
3:06  -  2 mph 1019.1mb 49f 52f
3:00 1 3 mph 1019.1mb 49f 52f
2:54 1 3 mph 1019.1mb 49f 52f
2:48 2 3 mph 1019.1mb 49f 52f
2:36 3 5 mph 1019.2mb 49f 52f
2:30 2 5 mph 1019.2mb 49f 52f
2:24 1 3 mph 1019.2mb 49f 51f
2:18 1 2 mph 1019.3mb 49f 51f
2:12  -  2 mph 1019.3mb 49f 51f
2:06 1 2 mph 1019.3mb 49f 51f
2:00 2 3 mph 1019.4mb 49f 51f
1:54 2 3 mph 1019.3mb 49f 51f
1:48 2 3 mph 1019.3mb 49f 51f
1:24  -  mph 1019.4mb 49f -
1:18  -  mph 1019.4mb 49f -
1:12  -  mph 1019.5mb 49f -
1:06  -  mph 1019.5mb 49f -
1:00  -  mph 1019.5mb 49f -
12:54  -  mph 1019.5mb 49f -
12:48  -  mph 1019.6mb 49f -
12:36 2 3 mph 1019.7mb 49f 50f
12:30  -  1 mph 1019.8mb 49f 50f
12:24  -  mph 1019.9mb 49f 50f
12:18  -  2 mph - - 50f
12:12 1 2 mph - - 50f
12:06  -  1 mph - - 50f
12:00  -  1 mph - - 50f
dim. 03/29 11:54  -  mph - - 50f
11:48  -  1 mph - - 50f
11:18  -  mph 1020.3mb 49f -
10:54  -  mph 1020.6mb 49f -
10:48  -  mph 1020.5mb 49f -
10:36 1 6 mph 1020.5mb 49f 50f
10:30 6 7 mph 1020.6mb 49f 50f
10:24 6 7 mph 1020.7mb 49f 50f
10:18 6 8 mph 1020.6mb 49f 50f
10:12 7 8 mph 1020.6mb 49f 50f
10:06 6 8 mph 1020.6mb 49f 50f
10:00 5 7 mph 1020.6mb 49f 50f
9:54 6 7 mph 1020.6mb 49f 50f
9:48 3
mph
1020.6mb 49f 51f
9:36  -  1 mph 1020.5mb 49f 51f
9:30  -  2 mph 1020.4mb 49f 51f
9:24 2
mph
1020.4mb 49f 51f
9:18  -  1 mph 1020.4mb 49f 51f
9:12  -  1 mph 1020.3mb 49f 51f
9:06  -  2 mph 1020.4mb 49f 52f
9:00 1 2 mph 1020.4mb 49f 52f
8:54 1 3 mph 1020.3mb 49f 52f
8:48 2 3 mph 1020.2mb 49f 52f
8:36 2 5 mph 1020.3mb 49f 51f
8:30  -  2 mph 1020.3mb 49f 51f
8:24  -  2 mph 1020.4mb 49f 52f
8:18  -  2 mph 1020.4mb 49f 52f
8:12  -  1 mph 1020.4mb 49f 52f
8:06  -  3 mph 1020.4mb 49f 51f
8:00  -  1 mph 1020.5mb 49f 52f
7:54  -  1 mph 1020.6mb 49f 52f
7:48  -  1 mph 1020.6mb 49f 52f
7:36  -  1 mph 1020.7mb 49f 52f
7:30  -  1 mph 1020.7mb 49f 52f
7:24  -  2 mph 1020.7mb 49f 52f
7:18 1 2 mph 1020.8mb 49f 53f
7:12  -  mph 1020.8mb 49f 53f
7:06  -  1 mph 1020.8mb 49f 53f
7:00  -  3 mph 1020.9mb 49f 53f
6:54  -  mph 1020.9mb 49f 53f
6:48  -  2 mph 1020.9mb 49f 53f
6:36  -  3 mph 1021mb 49f 53f
6:30  -  1 mph 1021.1mb 49f 54f
6:24  -  3 mph 1021.1mb 49f 54f
6:18 1 3 mph 1021.1mb 49f 53f
6:12 1 3 mph 1021.2mb 49f 53f
6:06  -  2 mph 1021.2mb 49f 54f
6:00  -  1 mph 1021.3mb 49f 54f
5:54 1 3 mph - - 53f
5:48 2 3 mph 1021.3mb 49f 54f
5:36 3 5 mph 1021.4mb 49f 53f
5:30 2 5 mph 1021.5mb 49f 53f
5:24 2 5 mph 1021.5mb 49f 53f
5:18 1 5 mph 1021.5mb 49f 53f
5:12 3 5 mph 1021.5mb 49f 53f
5:06 3 5 mph 1021.6mb 49f 53f
5:00 2 3 mph 1021.6mb 49f 53f
4:54 1 2 mph 1021.7mb 49f 53f
4:48  -  1 mph 1021.8mb 49f 53f
4:24  -  mph 1021.8mb 49f -
4:18  -  mph 1021.8mb 49f -
4:12  -  mph 1021.9mb 49f -
4:06  -  mph 1021.9mb 49f -
4:00  -  mph 1021.9mb 49f -
3:54  -  mph 1021.9mb 49f -
3:48  -  mph 1021.9mb 49f -
3:36 2 3 mph 1021.9mb 49f 53f
3:30 2 5 mph 1021.9mb 49f 53f
3:24 3 6 mph 1021.9mb 49f 53f
3:18 3 7 mph 1022mb 49f 53f
3:12 2 5 mph 1022mb 49f 53f
3:06 3 8 mph 1022mb 49f 54f
3:00 5 8 mph 1022mb 49f 54f
2:54 5 7 mph - - 54f
2:48 5 8 mph 1022mb 49f 54f
2:36 2 7 mph 1022.1mb 49f 54f
2:30 5 7 mph 1022.1mb 49f 54f
2:24 3 6 mph 1022.1mb 49f 54f
2:18 3 7 mph 1022.1mb 49f 54f
2:12 6 8 mph 1022.2mb 49f 54f
2:06 6 10 mph 1022.2mb 49f 54f
2:00 7 11 mph 1022.2mb 49f 54f
1:54 6 9 mph 1022.2mb 49f 53f
1:48 6 11 mph 1022.2mb 49f 53f
1:36 6 11 mph 1022.2mb 49f 53f
1:30 8 11 mph 1022.2mb 49f 54f
1:24 8 13 mph 1022.2mb 49f 53f
1:18 5 14 mph 1022.1mb 49f 53f
1:12 7 13 mph 1022.1mb 49f 53f
1:06 6 14 mph 1022.1mb 49f 53f
1:00 6 14 mph 1022.1mb 49f 53f
12:54 8 14 mph 1022mb 49f 53f
12:48 6 10 mph 1022.1mb 49f 53f
12:36 9 13 mph 1022.1mb 49f 53f
12:30 8 11 mph 1022.2mb 49f 53f
12:24 9 14 mph - - 53f
12:18 10 14 mph 1022.2mb 49f 53f
12:12 10 17 mph 1022.2mb 49f 53f
12:06 10 15 mph 1022.2mb 49f 53f
12:00 10 14 mph 1022.2mb 49f 53f
11:54 8 13 mph 1022.2mb 49f 53f
11:48 8 13 mph 1022.2mb 49f 52f
11:36 8 11 mph 1022.2mb 49f 52f
11:30 8 13 mph 1022.2mb 49f 52f
11:24 7 11 mph 1022.3mb 49f 52f
11:18 8 11 mph 1022.4mb 49f 52f
11:12 8 13 mph 1022.4mb 49f 52f
11:06 7 11 mph - - 52f
11:00 8 14 mph - - 52f
10:54 9 11 mph 1022.5mb 49f 52f
10:48 7 16 mph 1022.4mb 49f 52f
10:36 8 14 mph 1022.3mb 49f 52f
10:30 8 14 mph 1022.3mb 49f 52f
10:24 10 15 mph 1022.2mb 49f 52f
10:18 10 14 mph 1022.1mb 49f 52f
10:12 9 13 mph - - 52f
10:06 9 14 mph 1022.1mb 49f 52f
10:00 8 13 mph 1022.1mb 49f 52f
9:54 8 14 mph 1022.1mb 49f 52f
9:48 8 15 mph 1022.2mb 49f 52f
9:36 8 14 mph 1022.3mb 49f 52f
9:30 9 16 mph 1022.2mb 49f 52f
9:24 10 15 mph - - 52f
9:18 11 20 mph 1022.1mb 49f 52f
9:12 10 16 mph 1022.1mb 49f 51f
9:06 10 15 mph 1022mb 49f 51f
9:00 10 15 mph 1022mb 49f 51f
8:54 8 15 mph 1022.1mb 49f 51f
8:48 9 14 mph 1022.1mb 49f 51f
8:36 9 13 mph 1022.1mb 49f 51f
8:30 9 13 mph 1022.1mb 49f 51f
8:24 5 8 mph 1022.1mb 49f 50f
8:18 8 10 mph 1022.1mb 49f 51f
8:12 9 11 mph 1022.1mb 49f 50f
8:06 8 11 mph 1022.1mb 49f 50f
8:00 7 9 mph 1022.1mb 49f 50f
7:54 7 10 mph 1022.2mb 49f 50f
7:48 7 10 mph 1022.3mb 49f 50f
7:24  -  mph 1022.4mb 49f -
7:18  -  mph 1022.6mb 49f -
7:12  -  mph 1022.8mb 49f -
6:54  -  mph 1022.7mb 49f -
6:48  -  mph 1022.6mb 49f -
6:36 7 10 mph 1022.8mb 49f 51f
6:30 6 7 mph 1022.9mb 49f 51f
6:24 6 9 mph 1023mb 49f 51f
6:18 5 8 mph 1022.9mb 49f 51f
6:12 5 8 mph 1022.8mb 49f 51f
6:06 3 9 mph 1022.8mb 49f 51f
6:00 5 7 mph 1022.7mb 49f 51f
5:54 6 11 mph 1022.6mb 49f 51f
5:48 8 11 mph 1022.5mb 49f 51f
5:36 9 13 mph 1022.5mb 49f 51f
5:30 9 13 mph 1022.5mb 49f 51f
5:24 7 11 mph 1022.5mb 49f 51f
5:18 8 11 mph 1022.5mb 49f 51f
5:12 10 13 mph 1022.6mb 49f 51f
5:06 8 14 mph 1022.8mb 49f 51f
5:00 8 13 mph 1022.9mb 49f 51f
4:54 7 11 mph 1022.9mb 49f 51f
4:48 6 10 mph 1023mb 49f 51f